Time;durP1;ratioP1;P1;durP2;ratioP2;P2;SDS_P1;SDS_P2;PMS_P1;PMS_P2;Temp;Humidity;BMP_temperature;BMP_pressure;BME280_temperature;BME280_humidity;BME280_pressure;Samples;Min_cycle;Max_cycle;Signal;HPM_P1;HPM_P2
2022/01/07 00:01:15;;;;;;;1999.90;999.90;;;;;;;-0.45;83.37;162280.25;5048354;28;20481;-69
2022/01/07 00:03:42;;;;;;;1999.90;999.90;;;;;;;-0.54;82.88;162255.66;5048544;28;20059;-69
2022/01/07 00:06:09;;;;;;;1999.90;999.90;;;;;;;-0.54;83.04;162255.66;5047259;28;20445;-68
2022/01/07 00:08:35;;;;;;;1999.90;999.90;;;;;;;-0.67;82.87;162221.53;5048451;28;20105;-68
2022/01/07 00:11:02;;;;;;;1999.90;999.90;;;;;;;-0.73;83.00;162206.50;5048618;28;20077;-68
2022/01/07 00:13:29;;;;;;;1999.90;999.90;;;;;;;-0.88;83.99;162165.47;5047129;28;20045;-68
2022/01/07 00:15:56;;;;;;;1999.90;999.90;;;;;;;-1.20;83.94;162080.81;5047281;28;20072;-68
2022/01/07 00:18:23;;;;;;;1999.90;999.90;;;;;;;-1.17;84.79;162089.00;5047794;28;20099;-68
2022/01/07 00:20:52;;;;;;;1999.90;999.90;;;;;;;-1.03;84.32;162125.84;5046704;28;20075;-68
2022/01/07 00:23:19;;;;;;;1999.90;999.90;;;;;;;-1.00;84.27;162132.69;5051278;28;20114;-68
2022/01/07 00:25:46;;;;;;;1999.90;999.90;;;;;;;-0.99;83.12;162135.44;5047641;28;20088;-68
2022/01/07 00:28:13;;;;;;;1999.90;999.90;;;;;;;-1.05;82.76;162119.06;5045901;28;20406;-68
2022/01/07 00:30:40;;;;;;;1999.90;999.90;;;;;;;-1.23;83.64;162072.59;5031437;28;20045;-68
2022/01/07 00:33:07;;;;;;;1999.90;999.90;;;;;;;-1.20;83.92;162080.81;5048021;28;20087;-68
2022/01/07 00:35:34;;;;;;;1999.90;999.90;;;;;;;-1.22;84.27;162073.94;5046230;28;20099;-68
2022/01/07 00:38:00;;;;;;;1999.90;999.90;;;;;;;-1.29;83.57;162056.22;5047449;28;20052;-69
2022/01/07 00:40:27;;;;;;;1999.90;999.90;;;;;;;-1.34;84.12;162043.94;5048317;28;20065;-68
2022/01/07 00:42:54;;;;;;;1999.90;999.90;;;;;;;-1.69;84.84;161951.06;5045845;28;20056;-68
2022/01/07 00:45:23;;;;;;;1999.90;999.90;;;;;;;-1.84;85.46;161911.47;5048046;28;20087;-68
2022/01/07 00:47:51;;;;;;;1999.90;999.90;;;;;;;-2.00;85.49;161869.13;5048282;28;20088;-68
2022/01/07 00:50:19;;;;;;;1999.90;999.90;;;;;;;-2.01;85.93;161865.03;5046705;28;20076;-69
2022/01/07 00:52:47;;;;;;;1999.90;999.90;;;;;;;-1.91;85.91;161891.00;5047680;28;20091;-68
2022/01/07 00:55:15;;;;;;;1999.90;999.90;;;;;;;-1.84;85.78;161911.47;5049146;28;20450;-68
2022/01/07 00:57:41;;;;;;;1999.90;999.90;;;;;;;-1.97;86.76;161875.97;5046413;28;20122;-68
2022/01/07 01:00:12;;;;;;;1999.90;999.90;;;;;;;-2.26;88.18;161798.16;5047830;28;20097;-68
2022/01/07 01:02:38;;;;;;;1999.90;999.90;;;;;;;-2.14;89.30;161830.94;5048999;28;20071;-68
2022/01/07 01:05:07;;;;;;;1999.90;999.90;;;;;;;-1.69;88.84;161949.72;5046785;28;20259;-68
2022/01/07 01:07:34;;;;;;;1999.90;999.90;;;;;;;-1.58;88.26;161979.72;5047066;28;20053;-68
2022/01/07 01:10:05;;;;;;;1999.90;999.90;;;;;;;-1.39;87.51;162028.91;5046960;28;20057;-68
2022/01/07 01:12:36;;;;;;;1999.90;999.90;;;;;;;-1.24;87.37;162069.84;5045504;28;20084;-68
2022/01/07 01:15:09;;;;;;;1999.90;999.90;;;;;;;-1.48;88.04;162007.03;5046031;28;20430;-68
2022/01/07 01:17:37;;;;;;;1999.90;999.90;;;;;;;-1.30;87.42;162054.81;5045965;28;20058;-68
2022/01/07 01:20:06;;;;;;;1999.90;999.90;;;;;;;-1.37;87.56;162034.34;5047309;28;20128;-69
2022/01/07 01:22:33;;;;;;;1999.90;999.90;;;;;;;-1.52;87.99;161994.75;5046374;28;20077;-68
2022/01/07 01:25:00;;;;;;;1999.90;999.90;;;;;;;-1.58;87.80;161978.38;5046364;28;21433;-68
2022/01/07 01:27:26;;;;;;;1999.90;999.90;;;;;;;-1.34;86.66;162042.53;5046804;28;20095;-68
2022/01/07 01:29:53;;;;;;;1999.90;999.90;;;;;;;-1.32;87.19;162049.38;5048608;28;20138;-68
2022/01/07 01:32:20;;;;;;;1999.90;999.90;;;;;;;-1.42;86.85;162022.06;5046730;28;20048;-68
2022/01/07 01:34:46;;;;;;;1999.90;999.90;;;;;;;-1.21;86.73;162078.06;5046299;28;20056;-68
2022/01/07 01:37:13;;;;;;;1999.90;999.90;;;;;;;-1.37;86.77;162034.34;5045597;28;20053;-69
2022/01/07 01:39:40;;;;;;;1999.90;999.90;;;;;;;-1.23;86.54;162072.59;5043073;28;20400;-68
2022/01/07 01:42:07;;;;;;;1999.90;999.90;;;;;;;-1.13;86.72;162099.94;5046729;28;20124;-68
2022/01/07 01:44:33;;;;;;;1999.90;999.90;;;;;;;-1.17;86.14;162089.00;5045463;28;20284;-68
2022/01/07 01:47:00;;;;;;;1999.90;999.90;;;;;;;-0.89;85.77;162164.13;5046058;28;20072;-68
2022/01/07 01:49:27;;;;;;;1999.90;999.90;;;;;;;-1.02;85.69;162128.59;5047277;28;20081;-68
2022/01/07 01:51:53;;;;;;;1999.90;999.90;;;;;;;-1.01;86.18;162129.94;5045081;28;20061;-68
2022/01/07 01:54:20;;;;;;;1999.90;999.90;;;;;;;-0.93;85.92;162153.19;5044964;28;20385;-68
2022/01/07 01:56:47;;;;;;;1999.90;999.90;;;;;;;-0.78;84.98;162191.44;5047212;28;20080;-68
2022/01/07 01:59:22;;;;;;;1999.90;999.90;;;;;;;-0.73;84.66;162206.50;5045603;28;20076;-69
2022/01/07 02:01:49;;;;;;;1999.90;999.90;;;;;;;-0.72;84.61;162209.19;5036605;28;20076;-68
2022/01/07 02:04:16;;;;;;;1999.90;999.90;;;;;;;-0.78;84.78;162191.44;5047452;28;20436;-68
2022/01/07 02:06:42;;;;;;;1999.90;999.90;;;;;;;-0.85;85.00;162173.66;5045038;28;20053;-69
2022/01/07 02:09:09;;;;;;;1999.90;999.90;;;;;;;-0.93;84.66;162151.84;5045599;28;20076;-68
2022/01/07 02:11:36;;;;;;;1999.90;999.90;;;;;;;-0.87;84.45;162168.22;5047424;28;20076;-68
2022/01/07 02:14:02;;;;;;;1999.90;999.90;;;;;;;-0.81;84.98;162184.59;5045464;28;20080;-68
2022/01/07 02:16:29;;;;;;;1999.90;999.90;;;;;;;-0.74;84.29;162202.41;5044645;28;20049;-68
2022/01/07 02:18:56;;;;;;;1999.90;999.90;;;;;;;-0.97;84.62;162142.28;5048012;28;20049;-68
2022/01/07 02:21:24;;;;;;;1999.90;999.90;;;;;;;-1.00;84.81;162132.69;5044703;28;20293;-68
2022/01/07 02:23:51;;;;;;;1999.90;999.90;;;;;;;-0.99;84.99;162136.78;5045487;28;20142;-68
2022/01/07 02:26:19;;;;;;;1999.90;999.90;;;;;;;-0.97;85.47;162142.28;5051823;28;20045;-69
2022/01/07 02:28:47;;;;;;;1999.90;999.90;;;;;;;-0.78;84.23;162191.44;5045437;28;20080;-68
2022/01/07 02:31:14;;;;;;;1999.90;999.90;;;;;;;-0.74;84.40;162202.41;5045575;28;20084;-69
2022/01/07 02:33:40;;;;;;;1999.90;999.90;;;;;;;-0.62;84.00;162235.19;5047331;28;20434;-69
2022/01/07 02:36:08;;;;;;;1999.90;999.90;;;;;;;-0.71;84.05;162211.94;5045427;28;20076;-68
2022/01/07 02:38:36;;;;;;;1999.90;999.90;;;;;;;-0.56;83.73;162251.56;5044837;28;20433;-68
2022/01/07 02:41:03;;;;;;;1999.90;999.90;;;;;;;-0.61;83.97;162237.91;5047840;28;20437;-68
2022/01/07 02:43:32;;;;;;;1999.90;999.90;;;;;;;-0.57;83.07;162248.81;5047024;28;20076;-69
2022/01/07 02:45:59;;;;;;;1999.90;999.90;;;;;;;-0.63;83.16;162231.06;5044640;28;20045;-69
2022/01/07 02:48:26;;;;;;;1999.90;999.90;;;;;;;-0.63;83.10;162231.06;5046308;28;20364;-68
2022/01/07 02:50:52;;;;;;;1999.90;999.90;;;;;;;-0.69;82.93;162214.69;5045596;28;20080;-68
2022/01/07 02:53:19;;;;;;;1999.90;999.90;;;;;;;-0.57;82.72;162247.47;5045729;28;20084;-68
2022/01/07 02:55:45;;;;;;;1999.90;999.90;;;;;;;-0.72;82.93;162209.19;5050164;28;20442;-68
2022/01/07 02:58:12;;;;;;;1999.90;999.90;;;;;;;-0.71;82.92;162211.94;5049383;28;20174;-68
2022/01/07 03:00:39;;;;;;;1999.90;999.90;;;;;;;-0.90;82.99;162160.03;5048502;28;20056;-68
2022/01/07 03:03:07;;;;;;;1999.90;999.90;;;;;;;-1.16;83.93;162091.75;5048826;28;20072;-68
2022/01/07 03:05:34;;;;;;;1999.90;999.90;;;;;;;-1.05;83.53;162120.41;5049385;28;20080;-68
2022/01/07 03:08:01;;;;;;;1999.90;999.90;;;;;;;-1.09;83.88;162110.88;5048433;28;20061;-68
2022/01/07 03:10:32;;;;;;;1999.90;999.90;;;;;;;-0.94;82.76;162149.09;5047015;28;20449;-68
2022/01/07 03:13:00;;;;;;;1999.90;999.90;;;;;;;-0.82;82.60;162181.91;5050668;28;20061;-68
2022/01/07 03:15:28;;;;;;;1999.90;999.90;;;;;;;-0.89;82.20;162162.78;5047526;28;20045;-68
2022/01/07 03:17:55;;;;;;;1999.90;999.90;;;;;;;-0.75;82.43;162201.00;5050784;28;20053;-69
2022/01/07 03:20:22;;;;;;;1999.90;999.90;;;;;;;-0.77;81.99;162194.19;5050012;28;20783;-69
2022/01/07 03:22:49;;;;;;;1999.90;999.90;;;;;;;-0.79;81.67;162188.72;5047871;28;20052;-69
2022/01/07 03:25:17;;;;;;;1999.90;999.90;;;;;;;-0.88;81.92;162165.47;5049613;28;20084;-69
2022/01/07 03:27:44;;;;;;;1999.90;999.90;;;;;;;-1.00;82.39;162134.03;5050253;28;20071;-67
2022/01/07 03:30:13;;;;;;;1999.90;999.90;;;;;;;-0.91;82.15;162157.28;5047549;28;20073;-67
2022/01/07 03:32:39;;;;;;;1999.90;999.90;;;;;;;-0.73;81.96;162205.09;5047868;28;20066;-68
2022/01/07 03:35:10;;;;;;;1999.90;999.90;;;;;;;-0.70;81.95;162213.28;5049638;28;20338;-68
2022/01/07 03:37:41;;;;;;;1999.90;999.90;;;;;;;-0.76;81.65;162198.31;5047948;28;20075;-67
2022/01/07 03:40:09;;;;;;;1999.90;999.90;;;;;;;-1.00;82.04;162132.69;5048313;28;20076;-68
2022/01/07 03:42:36;;;;;;;1999.90;999.90;;;;;;;-1.02;82.57;162128.59;5047832;28;20095;-67
2022/01/07 03:45:04;;;;;;;1999.90;999.90;;;;;;;-1.38;83.57;162033.00;5048084;28;20107;-67
2022/01/07 03:47:31;;;;;;;1999.90;999.90;;;;;;;-1.54;84.67;161990.66;5048202;28;20068;-67
2022/01/07 03:49:57;;;;;;;1999.90;999.90;;;;;;;-1.48;85.03;162007.03;5049637;28;20076;-68
2022/01/07 03:52:24;;;;;;;1999.90;999.90;;;;;;;-1.55;86.05;161987.91;5048900;28;20256;-68
2022/01/07 03:54:51;;;;;;;1999.90;999.90;;;;;;;-1.70;86.59;161948.31;5048837;28;20075;-68
2022/01/07 03:57:18;;;;;;;1999.90;999.90;;;;;;;-1.44;85.75;162016.63;5048464;28;20441;-68
2022/01/07 03:59:44;;;;;;;1999.90;999.90;;;;;;;-1.70;86.65;161946.97;5048187;28;20091;-68
2022/01/07 04:02:11;;;;;;;1999.90;999.90;;;;;;;-1.53;86.65;161992.00;5048609;28;20085;-68
2022/01/07 04:04:38;;;;;;;1999.90;999.90;;;;;;;-1.36;86.08;162038.44;5048671;28;20114;-68
2022/01/07 04:07:04;;;;;;;1999.90;999.90;;;;;;;-1.33;86.40;162046.63;5048646;28;20335;-68
2022/01/07 04:09:31;;;;;;;1999.90;999.90;;;;;;;-1.04;85.64;162121.75;5046711;28;20083;-68
2022/01/07 04:11:59;;;;;;;1999.90;999.90;;;;;;;-0.94;85.61;162149.09;5048029;28;20073;-68
2022/01/07 04:14:26;;;;;;;1999.90;999.90;;;;;;;-0.91;84.82;162157.28;5047413;28;20055;-68
2022/01/07 04:16:53;;;;;;;1999.90;999.90;;;;;;;-0.90;84.81;162161.38;5047213;28;20407;-67
2022/01/07 04:19:21;;;;;;;1999.90;999.90;;;;;;;-1.00;84.66;162134.03;5048386;28;20072;-69
2022/01/07 04:21:49;;;;;;;1999.90;999.90;;;;;;;-1.14;85.32;162097.19;5046906;28;20053;-68
2022/01/07 04:24:16;;;;;;;1999.90;999.90;;;;;;;-0.97;84.72;162140.88;5046717;28;20213;-68
2022/01/07 04:26:43;;;;;;;1999.90;999.90;;;;;;;-1.11;84.73;162105.38;5047822;28;20135;-68
2022/01/07 04:29:10;;;;;;;1999.90;999.90;;;;;;;-1.26;85.25;162064.41;5046173;28;20376;-68
2022/01/07 04:31:37;;;;;;;1999.90;999.90;;;;;;;-1.05;84.84;162119.06;5046312;28;20041;-68
2022/01/07 04:34:04;;;;;;;1999.90;999.90;;;;;;;-1.01;85.18;162129.94;5047329;28;20045;-69
2022/01/07 04:36:30;;;;;;;1999.90;999.90;;;;;;;-1.15;85.67;162094.44;5047748;28;20107;-69
2022/01/07 04:38:57;;;;;;;1999.90;999.90;;;;;;;-1.37;86.72;162035.75;5046939;28;20134;-69
2022/01/07 04:41:23;;;;;;;1999.90;999.90;;;;;;;-1.34;87.10;162042.53;5047671;28;20099;-69
2022/01/07 04:43:50;;;;;;;1999.90;999.90;;;;;;;-1.55;87.71;161987.91;5048674;28;20045;-67
2022/01/07 04:46:16;;;;;;;1999.90;999.90;;;;;;;-1.46;87.86;162012.53;5047568;28;20433;-67
2022/01/07 04:48:43;;;;;;;1999.90;999.90;;;;;;;-1.60;88.36;161974.28;5047700;28;20072;-67
2022/01/07 04:51:10;;;;;;;1999.90;999.90;;;;;;;-1.96;89.60;161878.72;5048203;28;20049;-67
2022/01/07 04:53:36;;;;;;;1999.90;999.90;;;;;;;-2.16;90.80;161826.84;5047525;28;20076;-67
2022/01/07 04:56:03;;;;;;;1999.90;999.90;;;;;;;-1.81;90.68;161919.66;5047494;28;20080;-67
2022/01/07 04:58:29;;;;;;;1999.90;999.90;;;;;;;-1.72;90.25;161941.53;5048502;28;20323;-67
2022/01/07 05:00:56;;;;;;;1999.90;999.90;;;;;;;-1.87;89.91;161903.28;5047155;28;20534;-68
2022/01/07 05:03:23;;;;;;;1999.90;999.90;;;;;;;-1.72;90.30;161941.53;5047639;28;20095;-68
2022/01/07 05:06:00;;;;;;;1999.90;999.90;;;;;;;-1.60;89.47;161974.28;5049034;28;20076;-68
2022/01/07 05:08:27;;;;;;;1999.90;999.90;;;;;;;-1.95;90.50;161881.41;5046986;28;20075;-68
2022/01/07 05:10:54;;;;;;;1999.90;999.90;;;;;;;-1.88;90.24;161900.53;5046867;28;20064;-68
2022/01/07 05:13:20;;;;;;;1999.90;999.90;;;;;;;-2.06;90.78;161852.75;5049139;28;20090;-68
2022/01/07 05:15:47;;;;;;;1999.90;999.90;;;;;;;-1.91;90.93;161892.34;5029235;28;20413;-68
2022/01/07 05:18:14;;;;;;;1999.90;999.90;;;;;;;-1.95;90.72;161881.41;5047262;28;20059;-68
2022/01/07 05:20:40;;;;;;;1999.90;999.90;;;;;;;-1.83;90.43;161912.81;5030803;28;20045;-68
2022/01/07 05:23:07;;;;;;;1999.90;999.90;;;;;;;-2.10;91.18;161841.81;5045940;28;20511;-68
2022/01/07 05:25:34;;;;;;;1999.90;999.90;;;;;;;-2.35;91.54;161775.00;5047056;28;20049;-68
2022/01/07 05:28:01;;;;;;;1999.90;999.90;;;;;;;-2.32;91.48;161784.53;5048594;28;20053;-68
2022/01/07 05:30:27;;;;;;;1999.90;999.90;;;;;;;-2.22;92.39;161809.09;5047675;28;20393;-68
2022/01/07 05:32:54;;;;;;;1999.90;999.90;;;;;;;-2.09;90.62;161844.56;5047633;28;20384;-69
2022/01/07 05:35:20;;;;;;;1999.90;999.90;;;;;;;-1.79;89.55;161925.16;5047890;28;20076;-69
2022/01/07 05:37:47;;;;;;;1999.90;999.90;;;;;;;-1.91;89.78;161892.34;5046958;28;20049;-68
2022/01/07 05:40:14;;;;;;;1999.90;999.90;;;;;;;-1.80;89.45;161921.06;5047086;28;20052;-68
2022/01/07 05:42:40;;;;;;;1999.90;999.90;;;;;;;-1.98;90.08;161873.22;5048019;28;20049;-68
2022/01/07 05:45:07;;;;;;;1999.90;999.90;;;;;;;-1.93;89.44;161886.91;5047413;28;20504;-68
2022/01/07 05:47:34;;;;;;;1999.90;999.90;;;;;;;-1.79;89.09;161925.16;5047029;28;20543;-69
2022/01/07 05:50:00;;;;;;;1999.90;999.90;;;;;;;-1.70;88.20;161946.97;5047517;28;20606;-68
2022/01/07 05:52:27;;;;;;;1999.90;999.90;;;;;;;-1.59;87.92;161977.03;5047396;28;20091;-68
2022/01/07 05:54:54;;;;;;;1999.90;999.90;;;;;;;-1.70;87.83;161948.31;5046131;28;20434;-69
2022/01/07 05:57:20;;;;;;;1999.90;999.90;;;;;;;-1.82;88.75;161916.91;5047740;28;20076;-69
2022/01/07 05:59:47;;;;;;;1999.90;999.90;;;;;;;-2.06;89.23;161851.41;5049119;28;20080;-70
2022/01/07 06:02:13;;;;;;;1999.90;999.90;;;;;;;-2.10;89.11;161841.81;5046991;28;20091;-69
2022/01/07 06:04:44;;;;;;;1999.90;999.90;;;;;;;-2.38;89.73;161766.75;5060114;28;20090;-68
2022/01/07 06:07:11;;;;;;;1999.90;999.90;;;;;;;-2.24;89.57;161805.00;5048251;28;20049;-68
2022/01/07 06:09:37;;;;;;;1999.90;999.90;;;;;;;-2.18;88.88;161821.34;5046317;28;20393;-68
2022/01/07 06:12:05;;;;;;;1999.90;999.90;;;;;;;-2.52;89.37;161731.28;5048431;28;20124;-69
2022/01/07 06:14:32;;;;;;;1999.90;999.90;;;;;;;-2.26;88.91;161799.56;5047532;28;20084;-69
2022/01/07 06:16:58;;;;;;;1999.90;999.90;;;;;;;-1.96;87.43;161880.06;5046456;28;20053;-69
2022/01/07 06:19:25;;;;;;;1999.90;999.90;;;;;;;-2.32;88.19;161783.19;5050885;28;20088;-68
2022/01/07 06:21:51;;;;;;;1999.90;999.90;;;;;;;-2.32;88.48;161784.53;5047231;28;20426;-69
2022/01/07 06:24:18;;;;;;;1999.90;999.90;;;;;;;-2.24;87.57;161803.63;5044248;28;20170;-69
2022/01/07 06:26:44;;;;;;;1999.90;999.90;;;;;;;-2.22;87.41;161809.09;5046891;28;20130;-69
2022/01/07 06:29:11;;;;;;;1999.90;999.90;;;;;;;-2.09;86.99;161843.22;5051595;28;20350;-69
2022/01/07 06:31:37;;;;;;;1999.90;999.90;;;;;;;-2.23;87.05;161807.72;5050025;28;20041;-69
2022/01/07 06:34:04;;;;;;;1999.90;999.90;;;;;;;-2.27;86.75;161796.81;5050453;28;20512;-69
2022/01/07 06:36:30;;;;;;;1999.90;999.90;;;;;;;-2.13;86.69;161835.03;5051337;28;20446;-69
2022/01/07 06:38:58;;;;;;;1999.90;999.90;;;;;;;-2.12;86.26;161836.38;5050113;28;20053;-69
2022/01/07 06:41:25;;;;;;;1999.90;999.90;;;;;;;-1.97;85.89;161875.97;5050461;28;20052;-69
2022/01/07 06:43:51;;;;;;;1999.90;999.90;;;;;;;-2.12;86.26;161837.72;5051267;28;20341;-69
2022/01/07 06:46:18;;;;;;;1999.90;999.90;;;;;;;-1.94;85.54;161884.16;5050068;28;20132;-69
2022/01/07 06:48:46;;;;;;;1999.90;999.90;;;;;;;-1.99;85.82;161870.53;5050202;28;20053;-69
2022/01/07 06:51:14;;;;;;;1999.90;999.90;;;;;;;-1.96;85.44;161880.06;5051159;28;20402;-69
2022/01/07 06:53:40;;;;;;;1999.90;999.90;;;;;;;-2.26;86.58;161798.16;5049448;28;20094;-69
2022/01/07 06:56:07;;;;;;;1999.90;999.90;;;;;;;-2.24;86.53;161805.00;5050338;28;20045;-68
2022/01/07 06:58:33;;;;;;;1999.90;999.90;;;;;;;-2.04;85.82;161856.84;5051211;28;20231;-68
2022/01/07 07:01:00;;;;;;;1999.90;999.90;;;;;;;-2.29;86.41;161791.38;5049717;28;20069;-68
2022/01/07 07:03:27;;;;;;;1999.90;999.90;;;;;;;-2.72;87.62;161676.75;5049886;28;20071;-68
2022/01/07 07:05:53;;;;;;;1999.90;999.90;;;;;;;-2.75;88.22;161669.91;5051418;28;20810;-68
2022/01/07 07:08:20;;;;;;;1999.90;999.90;;;;;;;-2.52;87.83;161731.28;5050072;28;20084;-68
2022/01/07 07:10:46;;;;;;;1999.90;999.90;;;;;;;-2.58;88.36;161714.91;5052136;28;20134;-68
2022/01/07 07:13:13;;;;;;;1999.90;999.90;;;;;;;-2.35;87.18;161776.34;5050520;28;20079;-68
2022/01/07 07:15:39;;;;;;;1999.90;999.90;;;;;;;-2.52;87.79;161731.28;5047297;28;20080;-69
2022/01/07 07:18:06;;;;;;;1999.90;999.90;;;;;;;-2.27;86.91;161796.81;5049873;28;20114;-68
2022/01/07 07:20:32;;;;;;;1999.90;999.90;;;;;;;-2.42;88.46;161755.88;5051441;28;20395;-68
2022/01/07 07:22:59;;;;;;;1999.90;999.90;;;;;;;-2.36;87.29;161772.25;5049015;28;20450;-68
2022/01/07 07:25:25;;;;;;;1999.90;999.90;;;;;;;-2.34;87.05;161779.09;5049385;28;20096;-69
2022/01/07 07:27:52;;;;;;;1999.90;999.90;;;;;;;-2.05;86.75;161854.16;5051185;28;20056;-68
2022/01/07 07:30:18;;;;;;;1999.90;999.90;;;;;;;-1.84;86.51;161911.47;5049076;28;20080;-68
2022/01/07 07:32:47;;;;;;;1999.90;999.90;;;;;;;-1.82;85.77;161915.56;5049505;28;20437;-69
2022/01/07 07:38:03;;;;;;;1999.90;999.90;;;;;;;-2.15;87.02;161829.53;5037766;28;20157;-69
2022/01/07 07:40:30;;;;;;;1999.90;999.90;;;;;;;-2.17;86.86;161824.09;5048237;28;20073;-69
2022/01/07 07:42:56;;;;;;;1999.90;999.90;;;;;;;-2.05;86.69;161854.16;5049816;28;20080;-69
2022/01/07 07:45:23;;;;;;;1999.90;999.90;;;;;;;-2.33;88.49;161780.44;5049833;28;20084;-69
2022/01/07 07:47:49;;;;;;;1999.90;999.90;;;;;;;-1.83;86.55;161912.81;5048417;28;20045;-69
2022/01/07 07:50:16;;;;;;;1999.90;999.90;;;;;;;-1.74;85.96;161936.03;5049476;28;20060;-69
2022/01/07 07:52:42;;;;;;;1999.90;999.90;;;;;;;-1.74;85.03;161936.03;5050037;28;20080;-69
2022/01/07 07:55:09;;;;;;;1999.90;999.90;;;;;;;-1.77;86.14;161929.25;5047610;28;20076;-69
2022/01/07 07:57:36;;;;;;;1999.90;999.90;;;;;;;-1.48;85.78;162005.69;5048978;28;20428;-69
2022/01/07 08:00:05;;;;;;;1999.90;999.90;;;;;;;-1.73;86.44;161940.13;5049435;28;20451;-69
2022/01/07 08:02:31;;;;;;;1999.90;999.90;;;;;;;-1.72;86.54;161942.88;5048356;28;20096;-69
2022/01/07 08:04:58;;;;;;;1999.90;999.90;;;;;;;-1.63;86.61;161967.44;5049081;28;20064;-69
2022/01/07 08:07:24;;;;;;;1999.90;999.90;;;;;;;-1.66;86.42;161959.25;5049772;28;20162;-69
2022/01/07 08:09:52;;;;;;;1999.90;999.90;;;;;;;-1.55;86.03;161986.56;5049349;28;20052;-69
2022/01/07 08:12:50;;;;;;;1999.90;999.90;;;;;;;-1.65;86.85;161962.00;5047681;28;20102;-68
2022/01/07 08:17:51;;;;;;;1999.90;999.90;;;;;;;-1.39;85.56;162028.91;5048482;28;20085;-69
2022/01/07 08:20:17;;;;;;;1999.90;999.90;;;;;;;-1.57;86.46;161982.47;5048422;28;20106;-68
2022/01/07 08:22:44;;;;;;;1999.90;999.90;;;;;;;-1.34;86.28;162043.94;5031655;28;20041;-69
2022/01/07 08:25:10;;;;;;;1999.90;999.90;;;;;;;-1.61;86.94;161971.53;5049484;28;20041;-68
2022/01/07 08:27:37;;;;;;;1999.90;999.90;;;;;;;-1.45;86.26;162015.22;5047671;28;20080;-69
2022/01/07 08:30:12;;;;;;;1999.90;999.90;;;;;;;-1.61;86.70;161971.53;5049316;28;20096;-69
2022/01/07 08:35:24;;;;;;;1999.90;999.90;;;;;;;-1.30;86.43;162053.47;5046978;28;20345;-69
2022/01/07 08:37:51;;;;;;;1999.90;999.90;;;;;;;-1.35;86.51;162039.84;5048024;28;20041;-68
2022/01/07 08:40:17;;;;;;;1999.90;999.90;;;;;;;-1.04;85.89;162121.75;5049302;28;20098;-69
2022/01/07 08:42:44;;;;;;;1999.90;999.90;;;;;;;-1.11;86.06;162105.38;5047211;28;20037;-69
2022/01/07 08:45:10;;;;;;;1999.90;999.90;;;;;;;-1.09;85.95;162109.47;5048360;28;20088;-69
2022/01/07 08:47:37;;;;;;;1999.90;999.90;;;;;;;-0.92;85.18;162154.59;5049485;28;20087;-69
2022/01/07 08:50:04;;;;;;;1999.90;999.90;;;;;;;-1.06;84.80;162117.66;5047555;28;20080;-69
2022/01/07 08:52:31;;;;;;;1999.90;999.90;;;;;;;-1.53;86.65;161992.00;5047358;28;20076;-68
2022/01/07 08:54:57;;;;;;;1999.90;999.90;;;;;;;-1.46;86.08;162012.53;5048162;28;20633;-69
2022/01/07 08:57:24;;;;;;;1999.90;999.90;;;;;;;-1.50;85.77;162000.25;5047567;28;20393;-69
2022/01/07 08:59:52;;;;;;;1999.90;999.90;;;;;;;-1.70;86.36;161946.97;5048985;28;20098;-69
2022/01/07 09:02:19;;;;;;;1999.90;999.90;;;;;;;-1.33;85.23;162046.63;5056292;28;20122;-69
2022/01/07 09:04:45;;;;;;;1999.90;999.90;;;;;;;-1.11;83.72;162105.38;5047992;28;20056;-69
2022/01/07 09:07:12;;;;;;;1999.90;999.90;;;;;;;-0.89;84.30;162162.78;5054734;28;20041;-69
2022/01/07 09:09:39;;;;;;;1999.90;999.90;;;;;;;-0.67;83.04;162220.13;5047743;28;20052;-69
2022/01/07 09:12:07;;;;;;;1999.90;999.90;;;;;;;-0.50;82.42;162265.25;5046540;28;20037;-69
2022/01/07 09:14:34;;;;;;;1999.90;999.90;;;;;;;-0.24;81.22;162336.34;5050453;28;20060;-69
2022/01/07 09:17:01;;;;;;;1999.90;999.90;;;;;;;-0.62;82.59;162233.81;5047905;28;20496;-69
2022/01/07 09:19:28;;;;;;;1999.90;999.90;;;;;;;-0.42;82.58;162288.44;5049822;28;20044;-69
2022/01/07 09:21:56;;;;;;;1999.90;999.90;;;;;;;-0.13;82.08;162363.69;5046740;28;20053;-69
2022/01/07 09:24:25;;;;;;;1999.90;999.90;;;;;;;-0.32;80.65;162313.09;5047468;28;20049;-69
2022/01/07 09:26:52;;;;;;;1999.90;999.90;;;;;;;-0.76;80.44;162198.31;5048479;28;20087;-69
2022/01/07 09:29:18;;;;;;;1999.90;999.90;;;;;;;-0.97;81.20;162142.28;5047267;28;20106;-68
2022/01/07 09:31:45;;;;;;;1999.90;999.90;;;;;;;-0.68;81.25;162218.78;5048346;28;20080;-68
2022/01/07 09:34:11;;;;;;;1999.90;999.90;;;;;;;-0.89;81.12;162162.78;5048626;28;20323;-69
2022/01/07 09:36:53;;;;;;;1999.90;999.90;;;;;;;-0.44;80.54;162283.00;5046709;28;20110;-68
2022/01/07 09:39:21;;;;;;;1999.90;999.90;;;;;;;-0.23;80.08;162339.03;5047465;28;20045;-69
2022/01/07 09:41:48;;;;;;;1999.90;999.90;;;;;;;-0.28;79.29;162324.00;5048348;28;20080;-70
2022/01/07 09:44:15;;;;;;;1999.90;999.90;;;;;;;-0.54;78.80;162257.06;5047310;28;20045;-70
2022/01/07 09:46:43;;;;;;;1999.90;999.90;;;;;;;-0.66;79.40;162222.88;5047930;28;20114;-70
2022/01/07 09:49:10;;;;;;;1999.90;999.90;;;;;;;-0.52;79.21;162259.75;5048787;28;20445;-70
2022/01/07 09:51:39;;;;;;;1999.90;999.90;;;;;;;-0.19;77.68;162349.97;5046291;28;20072;-70
2022/01/07 09:54:06;;;;;;;1999.90;999.90;;;;;;;-0.17;77.35;162354.06;5047769;28;20052;-70
2022/01/07 09:56:34;;;;;;;1999.90;999.90;;;;;;;0.04;76.11;162408.78;5048818;28;20053;-70
2022/01/07 09:59:04;;;;;;;1999.90;999.90;;;;;;;-0.07;76.38;162381.41;5044720;28;20049;-70
2022/01/07 10:02:07;;;;;;;1999.90;999.90;;;;;;;0.25;76.26;162466.16;5046808;28;20046;-69
2022/01/07 10:04:40;;;;;;;1999.90;999.90;;;;;;;0.15;74.50;162438.88;5051778;28;20055;-70
2022/01/07 10:07:11;;;;;;;1999.90;999.90;;;;;;;0.77;73.85;162602.94;5050823;28;20049;-69
2022/01/07 10:09:40;;;;;;;1999.90;999.90;;;;;;;0.63;73.09;162566.03;5048924;28;20099;-69
2022/01/07 10:12:08;;;;;;;1999.90;999.90;;;;;;;1.04;72.66;162676.84;5041299;28;20037;-70
2022/01/07 10:14:38;;;;;;;1999.90;999.90;;;;;;;1.25;71.06;162731.59;5051298;28;20087;-70
2022/01/07 10:17:05;;;;;;;1999.90;999.90;;;;;;;1.66;70.20;162841.03;5049357;28;20495;-70
2022/01/07 10:19:38;;;;;;;1999.90;999.90;;;;;;;1.79;69.31;162873.88;5050979;28;20079;-69
2022/01/07 10:22:07;;;;;;;1999.90;999.90;;;;;;;1.83;69.86;162886.25;5049957;28;20353;-69
2022/01/07 10:24:55;;;;;;;1999.90;999.90;;;;;;;2.22;67.08;162988.88;5048949;28;20509;-70
2022/01/07 10:27:24;;;;;;;1999.90;999.90;;;;;;;2.32;67.73;163014.91;5038508;28;20095;-70
2022/01/07 10:29:51;;;;;;;1999.90;999.90;;;;;;;1.95;69.08;162917.72;5048362;28;20048;-70
2022/01/07 10:32:26;;;;;;;1999.90;999.90;;;;;;;2.16;68.80;162972.47;5050463;28;20089;-69
2022/01/07 10:35:02;;;;;;;1999.90;999.90;;;;;;;2.32;66.92;163014.91;5047829;28;20095;-69
2022/01/07 10:37:28;;;;;;;1999.90;999.90;;;;;;;2.51;67.38;163065.59;5049305;28;20045;-70
2022/01/07 10:39:55;;;;;;;1999.90;999.90;;;;;;;1.92;66.02;162910.88;5049289;28;20427;-70
2022/01/07 10:42:26;;;;;;;1999.90;999.90;;;;;;;1.84;67.77;162887.59;5048964;28;20033;-69
2022/01/07 10:45:04;;;;;;;1999.90;999.90;;;;;;;2.10;67.17;162958.78;5049677;28;20091;-70
2022/01/07 10:47:31;;;;;;;1999.90;999.90;;;;;;;1.86;67.72;162893.06;5049941;28;20130;-69
2022/01/07 10:50:22;;;;;;;1999.90;999.90;;;;;;;1.61;66.78;162825.97;5048481;28;20512;-70
2022/01/07 10:52:49;;;;;;;1999.90;999.90;;;;;;;1.73;69.09;162860.22;5049149;28;20068;-70
2022/01/07 10:55:21;;;;;;;1999.90;999.90;;;;;;;1.55;66.58;162812.31;5050871;28;20076;-69
2022/01/07 10:57:51;;;;;;;1999.90;999.90;;;;;;;1.58;66.15;162819.16;5049275;28;20452;-69